Time;durP1;ratioP1;P1;durP2;ratioP2;P2;SDS_P1;SDS_P2;PMS_P1;PMS_P2;Temp;Humidity;BMP_temperature;BMP_pressure;BME280_temperature;BME280_humidity;BME280_pressure;Samples;Min_cycle;Max_cycle;Signal;HPM_P1;HPM_P2
2022/06/24 00:00:42;;;;;;;6.32;2.40;;;;;;;;;;4987141;28;20022;-54
2022/06/24 00:03:15;;;;;;;4.68;2.00;;;;;;;;;;4986672;28;20450;-54
2022/06/24 00:05:42;;;;;;;6.22;1.95;;;;;;;;;;4986735;28;20065;-55
2022/06/24 00:08:09;;;;;;;8.00;2.28;;;;;;;;;;4985831;28;20190;-56
2022/06/24 00:10:36;;;;;;;7.97;2.13;;;;;;;;;;4987297;28;20037;-56
2022/06/24 00:13:04;;;;;;;4.78;1.80;;;;;;;;;;4987701;28;20085;-55
2022/06/24 00:15:32;;;;;;;4.45;1.58;;;;;;;;;;4987075;28;20553;-55
2022/06/24 00:18:20;;;;;;;2.38;1.38;;;;;;;;;;4986972;28;20041;-55
2022/06/24 00:20:48;;;;;;;1.98;1.10;;;;;;;;;;4987285;28;20480;-55
2022/06/24 00:23:18;;;;;;;1.95;1.00;;;;;;;;;;4987458;28;20031;-55
2022/06/24 00:25:46;;;;;;;3.33;1.27;;;;;;;;;;4987375;28;20065;-55
2022/06/24 00:28:13;;;;;;;2.17;1.10;;;;;;;;;;4985856;28;20099;-54
2022/06/24 00:30:41;;;;;;;2.63;1.20;;;;;;;;;;4986717;28;20594;-55
2022/06/24 00:33:14;;;;;;;1.63;1.05;;;;;;;;;;4987090;28;20031;-55
2022/06/24 00:35:42;;;;;;;1.92;0.98;;;;;;;;;;4986444;28;21946;-55
2022/06/24 00:38:21;;;;;;;2.55;0.93;;;;;;;;;;4986355;28;20045;-54
2022/06/24 00:40:47;;;;;;;2.10;0.98;;;;;;;;;;4987155;28;20533;-54
2022/06/24 00:43:23;;;;;;;1.77;0.73;;;;;;;;;;4986772;28;20105;-53
2022/06/24 00:45:50;;;;;;;3.20;1.15;;;;;;;;;;4986122;28;20018;-54
2022/06/24 00:48:16;;;;;;;1.45;0.82;;;;;;;;;;4987061;28;20509;-54
2022/06/24 00:50:47;;;;;;;1.38;0.80;;;;;;;;;;4986633;28;20027;-53
2022/06/24 00:53:14;;;;;;;1.35;0.65;;;;;;;;;;4981163;28;20050;-54
2022/06/24 00:55:41;;;;;;;1.27;0.90;;;;;;;;;;4984151;28;20049;-53
2022/06/24 00:58:12;;;;;;;2.95;1.30;;;;;;;;;;4988158;28;20026;-54
2022/06/24 01:00:38;;;;;;;0.85;0.60;;;;;;;;;;4987089;28;20030;-54
2022/06/24 01:03:05;;;;;;;1.40;0.77;;;;;;;;;;4987985;28;20049;-54
2022/06/24 01:05:32;;;;;;;1.10;0.70;;;;;;;;;;4987276;28;20030;-55
2022/06/24 01:07:58;;;;;;;0.80;0.70;;;;;;;;;;4988621;28;20026;-55
2022/06/24 01:10:25;;;;;;;1.33;0.60;;;;;;;;;;4987899;28;20037;-55
2022/06/24 01:12:52;;;;;;;1.05;0.77;;;;;;;;;;4987969;28;20070;-54
2022/06/24 01:15:18;;;;;;;0.57;0.57;;;;;;;;;;4986402;28;20036;-55
2022/06/24 01:17:44;;;;;;;1.75;0.70;;;;;;;;;;4968136;28;20066;-55
2022/06/24 01:20:12;;;;;;;1.90;0.73;;;;;;;;;;4968570;28;20105;-54
2022/06/24 01:22:39;;;;;;;1.15;0.52;;;;;;;;;;4975465;28;20026;-55
2022/06/24 01:25:05;;;;;;;0.50;0.50;;;;;;;;;;4987019;28;20035;-55
2022/06/24 01:27:32;;;;;;;0.90;0.70;;;;;;;;;;4987477;28;20119;-53
2022/06/24 01:29:58;;;;;;;1.40;0.80;;;;;;;;;;4988271;28;20389;-54
2022/06/24 01:32:24;;;;;;;0.60;0.60;;;;;;;;;;4987140;28;20037;-54
2022/06/24 01:34:50;;;;;;;1.58;0.95;;;;;;;;;;4986787;28;20456;-54
2022/06/24 01:37:16;;;;;;;1.67;0.80;;;;;;;;;;4987640;28;20074;-54
2022/06/24 01:39:42;;;;;;;0.90;0.77;;;;;;;;;;4987135;28;20038;-54
2022/06/24 01:42:09;;;;;;;0.82;0.60;;;;;;;;;;4986596;28;20041;-54
2022/06/24 01:44:35;;;;;;;0.50;0.50;;;;;;;;;;4987489;28;20027;-53
2022/06/24 01:47:02;;;;;;;1.17;0.70;;;;;;;;;;4986782;28;20494;-54
2022/06/24 01:49:28;;;;;;;0.85;0.60;;;;;;;;;;4987529;28;20045;-54
2022/06/24 01:51:55;;;;;;;1.23;0.60;;;;;;;;;;4986290;28;20501;-54
2022/06/24 01:54:21;;;;;;;1.27;0.88;;;;;;;;;;4987317;28;21181;-53
2022/06/24 01:56:48;;;;;;;1.52;0.70;;;;;;;;;;4986769;28;20110;-54
2022/06/24 01:59:15;;;;;;;1.35;0.93;;;;;;;;;;4987271;28;20041;-55
2022/06/24 02:01:44;;;;;;;1.63;0.82;;;;;;;;;;4986082;28;20537;-54
2022/06/24 02:04:11;;;;;;;0.77;0.60;;;;;;;;;;4987208;28;20540;-54
2022/06/24 02:06:37;;;;;;;1.33;0.75;;;;;;;;;;4985963;28;20041;-53
2022/06/24 02:09:03;;;;;;;1.17;0.90;;;;;;;;;;4986442;28;20504;-54
2022/06/24 02:14:14;;;;;;;0.82;0.77;;;;;;;;;;4987066;28;20104;-54
2022/06/24 02:16:40;;;;;;;1.50;0.85;;;;;;;;;;4986456;28;20117;-52
2022/06/24 02:19:07;;;;;;;1.60;0.90;;;;;;;;;;4986942;28;20038;-53
2022/06/24 02:21:34;;;;;;;1.45;0.65;;;;;;;;;;4985255;28;20025;-53
2022/06/24 02:24:00;;;;;;;2.50;0.90;;;;;;;;;;4987602;28;20054;-54
2022/06/24 02:26:26;;;;;;;1.92;0.63;;;;;;;;;;4987052;28;20030;-54
2022/06/24 02:28:53;;;;;;;1.42;0.80;;;;;;;;;;4987028;28;20028;-54
2022/06/24 02:31:19;;;;;;;0.82;0.80;;;;;;;;;;4986013;28;20409;-52
2022/06/24 02:33:46;;;;;;;1.17;0.98;;;;;;;;;;4986541;28;20034;-55
2022/06/24 02:36:13;;;;;;;1.40;0.82;;;;;;;;;;4986827;28;20030;-53
2022/06/24 02:38:39;;;;;;;1.35;1.17;;;;;;;;;;4985734;28;20034;-54
2022/06/24 02:41:05;;;;;;;1.30;0.73;;;;;;;;;;4985899;28;20626;-54
2022/06/24 02:43:35;;;;;;;1.25;0.80;;;;;;;;;;4987075;28;20038;-53
2022/06/24 02:46:02;;;;;;;1.45;0.85;;;;;;;;;;4987354;28;20075;-54
2022/06/24 02:48:29;;;;;;;1.13;0.88;;;;;;;;;;4987122;28;20030;-55
2022/06/24 02:50:57;;;;;;;4.22;1.05;;;;;;;;;;4986062;28;20412;-54
2022/06/24 02:53:24;;;;;;;2.47;1.10;;;;;;;;;;4986671;28;20027;-54
2022/06/24 02:55:52;;;;;;;0.90;0.82;;;;;;;;;;4986169;28;20085;-54
2022/06/24 02:58:18;;;;;;;1.35;0.82;;;;;;;;;;4984310;28;20037;-53
2022/06/24 03:00:44;;;;;;;1.52;1.00;;;;;;;;;;4985765;28;20562;-53
2022/06/24 03:03:11;;;;;;;1.40;0.90;;;;;;;;;;4983050;28;20023;-53
2022/06/24 03:05:37;;;;;;;1.20;1.00;;;;;;;;;;4986518;28;20129;-54
2022/06/24 03:08:04;;;;;;;1.40;1.10;;;;;;;;;;4986164;28;20057;-54
2022/06/24 03:10:30;;;;;;;1.73;0.95;;;;;;;;;;4985928;28;20042;-54
2022/06/24 03:12:56;;;;;;;1.58;1.10;;;;;;;;;;4985630;28;20094;-54
2022/06/24 03:15:22;;;;;;;2.35;0.90;;;;;;;;;;4986226;28;20477;-55
2022/06/24 03:17:48;;;;;;;1.63;0.93;;;;;;;;;;4989379;28;20417;-54
2022/06/24 03:20:15;;;;;;;2.00;1.15;;;;;;;;;;4989270;28;20121;-54
2022/06/24 03:22:41;;;;;;;1.17;0.93;;;;;;;;;;4989705;28;20033;-52
2022/06/24 03:25:07;;;;;;;2.38;1.15;;;;;;;;;;4989025;28;20031;-54
2022/06/24 03:27:35;;;;;;;3.15;1.40;;;;;;;;;;4989864;28;20101;-53
2022/06/24 03:30:01;;;;;;;2.65;1.08;;;;;;;;;;4989850;28;20034;-54
2022/06/24 03:32:27;;;;;;;0.95;0.88;;;;;;;;;;4988926;28;20030;-54
2022/06/24 03:34:53;;;;;;;0.93;0.70;;;;;;;;;;4989980;28;20065;-53
2022/06/24 03:37:19;;;;;;;1.70;0.90;;;;;;;;;;4989283;28;20425;-54
2022/06/24 03:39:45;;;;;;;0.80;0.80;;;;;;;;;;4989796;28;20019;-54
2022/06/24 03:42:11;;;;;;;0.95;0.80;;;;;;;;;;4989251;28;20022;-54
2022/06/24 03:44:37;;;;;;;2.15;0.88;;;;;;;;;;4989608;28;20041;-54
2022/06/24 03:47:04;;;;;;;1.70;0.98;;;;;;;;;;4989041;28;20071;-53
2022/06/24 03:49:30;;;;;;;2.75;1.15;;;;;;;;;;4989643;28;20069;-54
2022/06/24 03:51:56;;;;;;;1.95;0.90;;;;;;;;;;4988495;28;20088;-54
2022/06/24 03:54:22;;;;;;;2.08;1.13;;;;;;;;;;4988934;28;20136;-53
2022/06/24 03:56:48;;;;;;;1.77;1.10;;;;;;;;;;4989450;28;20099;-53
2022/06/24 03:59:14;;;;;;;1.15;0.90;;;;;;;;;;4988514;28;20034;-54
2022/06/24 04:01:40;;;;;;;2.08;1.08;;;;;;;;;;4989916;28;20496;-54
2022/06/24 04:04:06;;;;;;;1.73;0.98;;;;;;;;;;4988406;28;20429;-53
2022/06/24 04:06:32;;;;;;;3.17;1.20;;;;;;;;;;4989291;28;20031;-53
2022/06/24 04:08:59;;;;;;;3.13;1.17;;;;;;;;;;4988354;28;20092;-54
2022/06/24 04:11:25;;;;;;;2.00;0.90;;;;;;;;;;4988849;28;20156;-54
2022/06/24 04:13:51;;;;;;;1.17;0.95;;;;;;;;;;4989086;28;20029;-54
2022/06/24 04:16:17;;;;;;;2.58;1.05;;;;;;;;;;4988764;28;20031;-54
2022/06/24 04:18:43;;;;;;;1.48;1.00;;;;;;;;;;4988852;28;20505;-54
2022/06/24 04:21:13;;;;;;;1.65;0.73;;;;;;;;;;4988891;28;20569;-54
2022/06/24 04:23:39;;;;;;;2.03;1.15;;;;;;;;;;4988927;28;20033;-52
2022/06/24 04:26:05;;;;;;;2.47;1.23;;;;;;;;;;4987929;28;20027;-53
2022/06/24 04:28:31;;;;;;;5.22;1.13;;;;;;;;;;4986632;28;20556;-52
2022/06/24 04:30:58;;;;;;;2.00;1.10;;;;;;;;;;4988767;28;20035;-52
2022/06/24 04:33:24;;;;;;;3.95;1.08;;;;;;;;;;4988838;28;20026;-51
2022/06/24 04:35:50;;;;;;;1.70;0.90;;;;;;;;;;4988397;28;20405;-52
2022/06/24 04:38:16;;;;;;;2.13;1.00;;;;;;;;;;4986252;28;20038;-52
2022/06/24 04:40:42;;;;;;;2.08;1.00;;;;;;;;;;4989153;28;20101;-53
2022/06/24 04:43:08;;;;;;;2.83;1.15;;;;;;;;;;4988439;28;20548;-52
2022/06/24 04:45:35;;;;;;;2.83;1.15;;;;;;;;;;4988442;28;20440;-51
2022/06/24 04:48:01;;;;;;;1.15;0.90;;;;;;;;;;4987136;28;20028;-52
2022/06/24 04:50:27;;;;;;;2.33;0.88;;;;;;;;;;4987979;28;20056;-53
2022/06/24 04:52:54;;;;;;;1.50;0.90;;;;;;;;;;4988398;28;20077;-53
2022/06/24 04:55:21;;;;;;;1.85;0.90;;;;;;;;;;4988192;28;20030;-52
2022/06/24 04:57:47;;;;;;;1.67;1.00;;;;;;;;;;4987163;28;20026;-54
2022/06/24 05:00:14;;;;;;;1.85;0.88;;;;;;;;;;4985750;28;20110;-53
2022/06/24 05:02:41;;;;;;;2.20;1.00;;;;;;;;;;4988678;28;20085;-53
2022/06/24 05:05:08;;;;;;;0.90;0.70;;;;;;;;;;4989623;28;20026;-54
2022/06/24 05:07:34;;;;;;;1.98;1.08;;;;;;;;;;4989930;28;20026;-53
2022/06/24 05:10:00;;;;;;;1.65;1.00;;;;;;;;;;4989474;28;20109;-53
2022/06/24 05:12:26;;;;;;;3.92;1.02;;;;;;;;;;4988327;28;20026;-54
2022/06/24 05:14:53;;;;;;;1.75;0.95;;;;;;;;;;4989972;28;20039;-54
2022/06/24 05:17:19;;;;;;;2.08;0.90;;;;;;;;;;4989578;28;20030;-54
2022/06/24 05:19:45;;;;;;;1.83;0.93;;;;;;;;;;4989449;28;20682;-54
2022/06/24 05:22:11;;;;;;;1.77;0.90;;;;;;;;;;4988699;28;20521;-55
2022/06/24 05:24:37;;;;;;;1.63;0.90;;;;;;;;;;4989165;28;20030;-53
2022/06/24 05:27:03;;;;;;;2.92;1.05;;;;;;;;;;4989154;28;20569;-54
2022/06/24 05:29:29;;;;;;;2.13;0.77;;;;;;;;;;4988515;28;20402;-54
2022/06/24 05:31:55;;;;;;;0.80;0.80;;;;;;;;;;4988954;28;20061;-53
2022/06/24 05:34:21;;;;;;;2.15;1.13;;;;;;;;;;4988128;28;20520;-54
2022/06/24 05:36:47;;;;;;;1.50;0.95;;;;;;;;;;4989372;28;20093;-54
2022/06/24 05:39:13;;;;;;;2.08;0.90;;;;;;;;;;4987838;28;20551;-54
2022/06/24 05:41:41;;;;;;;1.55;1.10;;;;;;;;;;4988706;28;20113;-54
2022/06/24 05:44:08;;;;;;;1.95;1.10;;;;;;;;;;4989051;28;20112;-52
2022/06/24 05:46:34;;;;;;;3.17;1.27;;;;;;;;;;4988820;28;20026;-54
2022/06/24 05:49:00;;;;;;;0.85;0.70;;;;;;;;;;4987670;28;20034;-54
2022/06/24 05:51:26;;;;;;;1.45;0.80;;;;;;;;;;4988626;28;20038;-54
2022/06/24 05:56:37;;;;;;;1.65;1.00;;;;;;;;;;4988344;28;20085;-54
2022/06/24 05:59:04;;;;;;;1.77;0.85;;;;;;;;;;4988746;28;20417;-52
2022/06/24 06:01:30;;;;;;;1.63;0.95;;;;;;;;;;4988535;28;20026;-53
2022/06/24 06:03:56;;;;;;;0.90;0.85;;;;;;;;;;4987742;28;20125;-54
2022/06/24 06:06:23;;;;;;;0.73;0.73;;;;;;;;;;4987340;28;20121;-54
2022/06/24 06:08:49;;;;;;;2.80;1.15;;;;;;;;;;4987865;28;20038;-54
2022/06/24 06:11:20;;;;;;;2.08;1.02;;;;;;;;;;4986999;28;20076;-53
2022/06/24 06:13:47;;;;;;;3.15;1.00;;;;;;;;;;4988021;28;20026;-54
2022/06/24 06:16:13;;;;;;;1.45;1.00;;;;;;;;;;4978675;28;20026;-53
2022/06/24 06:18:39;;;;;;;1.08;0.80;;;;;;;;;;4988235;28;20036;-54
2022/06/24 06:21:07;;;;;;;2.78;1.00;;;;;;;;;;4986912;28;20456;-54
2022/06/24 06:23:33;;;;;;;1.17;0.93;;;;;;;;;;4987297;28;20478;-53
2022/06/24 06:26:00;;;;;;;1.85;1.20;;;;;;;;;;4987235;28;20073;-54
2022/06/24 06:28:26;;;;;;;1.73;1.00;;;;;;;;;;4988842;28;20424;-54
2022/06/24 06:30:53;;;;;;;2.75;1.13;;;;;;;;;;4988908;28;20485;-53
2022/06/24 06:33:19;;;;;;;1.13;0.80;;;;;;;;;;4988264;28;20069;-54
2022/06/24 06:35:45;;;;;;;1.02;0.95;;;;;;;;;;4987818;28;20062;-51
2022/06/24 06:38:12;;;;;;;1.75;1.02;;;;;;;;;;4987999;28;20109;-52
2022/06/24 06:40:38;;;;;;;2.78;0.90;;;;;;;;;;4988283;28;20069;-52
2022/06/24 06:43:08;;;;;;;1.98;1.00;;;;;;;;;;4988337;28;20117;-52
2022/06/24 06:45:35;;;;;;;1.73;1.20;;;;;;;;;;4987337;28;20031;-52
2022/06/24 06:48:01;;;;;;;2.33;0.90;;;;;;;;;;4988064;28;20022;-53
2022/06/24 06:50:27;;;;;;;1.13;0.90;;;;;;;;;;4988541;28;20504;-54
2022/06/24 06:52:54;;;;;;;1.13;0.75;;;;;;;;;;4992096;28;20046;-54
2022/06/24 06:55:20;;;;;;;2.08;1.15;;;;;;;;;;4988375;28;20031;-53
2022/06/24 06:57:46;;;;;;;1.95;0.80;;;;;;;;;;4990439;28;20018;-55
2022/06/24 07:00:13;;;;;;;2.28;0.93;;;;;;;;;;4986213;28;20030;-54
2022/06/24 07:02:39;;;;;;;0.70;0.60;;;;;;;;;;4989973;28;20022;-54
2022/06/24 07:05:06;;;;;;;1.10;0.82;;;;;;;;;;4989270;28;20065;-52
2022/06/24 07:07:32;;;;;;;2.95;0.70;;;;;;;;;;4990124;28;20026;-49
2022/06/24 07:09:59;;;;;;;1.25;0.70;;;;;;;;;;4989433;28;20053;-53
2022/06/24 07:12:25;;;;;;;1.45;0.85;;;;;;;;;;4989907;28;20084;-51
2022/06/24 07:14:51;;;;;;;0.90;0.40;;;;;;;;;;4989952;28;20038;-49
2022/06/24 07:17:17;;;;;;;1.42;0.75;;;;;;;;;;4988426;28;20068;-50
2022/06/24 07:19:44;;;;;;;2.70;0.60;;;;;;;;;;4990068;28;20045;-52
2022/06/24 07:22:10;;;;;;;0.65;0.50;;;;;;;;;;4989711;28;20065;-52
2022/06/24 07:24:36;;;;;;;0.68;0.40;;;;;;;;;;4990202;28;20105;-54
2022/06/24 07:27:03;;;;;;;1.13;0.32;;;;;;;;;;4988770;28;20174;-50
2022/06/24 07:29:31;;;;;;;0.80;0.50;;;;;;;;;;4989586;28;20030;-50
2022/06/24 07:31:57;;;;;;;1.15;0.50;;;;;;;;;;4990254;28;20030;-52
2022/06/24 07:34:26;;;;;;;0.30;0.30;;;;;;;;;;4989855;28;20033;-49
2022/06/24 07:36:52;;;;;;;0.63;0.47;;;;;;;;;;4989637;28;20046;-50
2022/06/24 07:39:18;;;;;;;0.50;0.50;;;;;;;;;;4989521;28;20665;-51
2022/06/24 07:41:44;;;;;;;1.38;0.47;;;;;;;;;;4989002;28;20121;-49
2022/06/24 07:44:10;;;;;;;0.68;0.55;;;;;;;;;;4988515;28;20550;-50
2022/06/24 07:46:36;;;;;;;1.05;0.70;;;;;;;;;;4989871;28;20029;-49
2022/06/24 07:49:02;;;;;;;0.60;0.50;;;;;;;;;;4989486;28;20026;-51
2022/06/24 07:51:28;;;;;;;0.47;0.40;;;;;;;;;;4989413;28;20057;-48
2022/06/24 07:53:54;;;;;;;1.20;0.40;;;;;;;;;;4989109;28;20374;-51
2022/06/24 07:59:06;;;;;;;0.68;0.40;;;;;;;;;;4988907;28;20053;-52
2022/06/24 08:01:33;;;;;;;1.02;0.47;;;;;;;;;;4988636;28;20045;-49
2022/06/24 08:03:59;;;;;;;0.43;0.40;;;;;;;;;;4987987;28;20031;-47
2022/06/24 08:06:25;;;;;;;1.02;0.50;;;;;;;;;;4990011;28;20081;-49
2022/06/24 08:08:51;;;;;;;1.13;0.60;;;;;;;;;;4988426;28;20030;-49
2022/06/24 08:11:18;;;;;;;0.65;0.47;;;;;;;;;;4986264;28;20038;-49
2022/06/24 08:13:44;;;;;;;0.65;0.50;;;;;;;;;;4988926;28;20488;-50
2022/06/24 08:16:10;;;;;;;0.45;0.45;;;;;;;;;;4988560;28;20149;-51
2022/06/24 08:18:36;;;;;;;1.27;0.60;;;;;;;;;;4988304;28;20120;-47
2022/06/24 08:21:02;;;;;;;0.40;0.40;;;;;;;;;;4989101;28;20030;-47
2022/06/24 08:23:28;;;;;;;0.45;0.40;;;;;;;;;;4988949;28;20465;-49
2022/06/24 08:25:54;;;;;;;1.08;0.50;;;;;;;;;;4984081;28;20867;-49
2022/06/24 08:28:20;;;;;;;0.70;0.60;;;;;;;;;;4987606;28;20442;-51
2022/06/24 08:30:46;;;;;;;0.82;0.60;;;;;;;;;;4986289;28;20054;-49
2022/06/24 08:33:12;;;;;;;2.20;0.70;;;;;;;;;;4981750;28;20085;-49
2022/06/24 08:35:38;;;;;;;2.75;0.88;;;;;;;;;;4988725;28;20482;-48
2022/06/24 08:38:04;;;;;;;1.00;0.68;;;;;;;;;;4988246;28;20042;-46
2022/06/24 08:40:30;;;;;;;1.17;0.70;;;;;;;;;;4987731;28;20030;-45
2022/06/24 08:42:57;;;;;;;1.38;0.75;;;;;;;;;;4988995;28;20497;-47
2022/06/24 08:45:24;;;;;;;2.03;1.20;;;;;;;;;;4989237;28;20030;-47
2022/06/24 08:47:51;;;;;;;1.63;0.90;;;;;;;;;;4988589;28;20567;-47
2022/06/24 08:50:17;;;;;;;1.85;0.90;;;;;;;;;;4985516;28;20207;-46
2022/06/24 08:52:47;;;;;;;1.60;0.70;;;;;;;;;;4987520;28;20038;-48
2022/06/24 08:55:17;;;;;;;2.63;1.00;;;;;;;;;;4986869;28;20038;-50
2022/06/24 08:57:44;;;;;;;1.60;0.90;;;;;;;;;;4988170;28;20080;-51
2022/06/24 09:00:10;;;;;;;1.77;1.00;;;;;;;;;;4985374;28;20054;-46
2022/06/24 09:02:36;;;;;;;1.25;0.80;;;;;;;;;;4983801;28;20031;-50
2022/06/24 09:05:09;;;;;;;0.82;0.80;;;;;;;;;;4979543;28;20493;-48
2022/06/24 09:07:35;;;;;;;0.82;0.68;;;;;;;;;;4982683;28;20815;-50
2022/06/24 09:10:04;;;;;;;1.23;0.77;;;;;;;;;;4985069;28;20073;-47
2022/06/24 09:12:36;;;;;;;0.70;0.70;;;;;;;;;;4986528;28;20031;-50
2022/06/24 09:15:06;;;;;;;1.45;0.90;;;;;;;;;;4986884;28;20026;-50
2022/06/24 09:17:33;;;;;;;1.90;1.20;;;;;;;;;;4987929;28;20022;-48
2022/06/24 09:20:05;;;;;;;0.85;0.82;;;;;;;;;;4986042;28;20030;-48
2022/06/24 09:22:32;;;;;;;2.17;0.90;;;;;;;;;;4987960;28;20030;-50
2022/06/24 09:24:59;;;;;;;1.00;0.93;;;;;;;;;;4979587;28;20030;-51
2022/06/24 09:27:26;;;;;;;1.25;0.70;;;;;;;;;;4989143;28;20097;-51
2022/06/24 09:29:53;;;;;;;0.90;0.90;;;;;;;;;;4986046;28;20054;-52
2022/06/24 09:32:19;;;;;;;1.17;0.85;;;;;;;;;;4984003;28;20054;-50
2022/06/24 09:35:02;;;;;;;0.82;0.75;;;;;;;;;;4987875;28;20574;-51
2022/06/24 09:37:38;;;;;;;1.70;0.80;;;;;;;;;;4984694;28;20027;-51
2022/06/24 09:40:24;;;;;;;0.70;0.70;;;;;;;;;;4984689;28;20086;-51
2022/06/24 09:42:55;;;;;;;0.80;0.80;;;;;;;;;;4974684;28;20124;-51
2022/06/24 09:45:21;;;;;;;0.73;0.73;;;;;;;;;;4987505;28;20030;-51
2022/06/24 09:47:49;;;;;;;0.55;0.55;;;;;;;;;;4985409;28;20030;-52
2022/06/24 09:50:15;;;;;;;0.55;0.55;;;;;;;;;;4986427;28;20495;-52
2022/06/24 09:52:41;;;;;;;0.70;0.70;;;;;;;;;;4984196;28;20401;-52
2022/06/24 09:55:07;;;;;;;0.55;0.55;;;;;;;;;;4986726;28;20041;-52
2022/06/24 09:57:34;;;;;;;0.55;0.55;;;;;;;;;;4985696;28;20022;-52
2022/06/24 10:02:46;;;;;;;0.50;0.50;;;;;;;;;;4966760;28;20046;-50
2022/06/24 10:05:12;;;;;;;0.55;0.55;;;;;;;;;;4981354;28;20033;-51
2022/06/24 10:07:43;;;;;;;0.60;0.60;;;;;;;;;;4985167;28;20115;-52
2022/06/24 10:10:09;;;;;;;0.70;0.70;;;;;;;;;;4981125;28;20023;-51
2022/06/24 10:12:40;;;;;;;1.15;0.85;;;;;;;;;;4978230;28;20062;-51
2022/06/24 10:15:06;;;;;;;0.60;0.60;;;;;;;;;;4977426;28;20433;-51
2022/06/24 10:17:34;;;;;;;0.55;0.55;;;;;;;;;;4983900;28;20030;-49
2022/06/24 10:20:01;;;;;;;0.70;0.70;;;;;;;;;;4985403;28;20517;-48
2022/06/24 10:22:42;;;;;;;0.50;0.50;;;;;;;;;;4972901;28;20035;-48
2022/06/24 10:25:08;;;;;;;1.98;0.70;;;;;;;;;;4981610;28;20027;-50
2022/06/24 10:27:54;;;;;;;0.50;0.50;;;;;;;;;;4992166;28;20073;-49
2022/06/24 10:30:35;;;;;;;0.65;0.65;;;;;;;;;;4988419;28;20034;-50
2022/06/24 10:33:14;;;;;;;1.98;0.90;;;;;;;;;;4990719;28;20081;-49
2022/06/24 10:36:00;;;;;;;0.80;0.80;;;;;;;;;;4990823;28;20523;-51
2022/06/24 10:38:27;;;;;;;0.80;0.73;;;;;;;;;;4992932;28;20428;-51
2022/06/24 10:40:53;;;;;;;0.70;0.70;;;;;;;;;;4991701;28;20109;-52
2022/06/24 10:43:34;;;;;;;0.82;0.82;;;;;;;;;;4992108;28;20121;-50
2022/06/24 10:46:13;;;;;;;0.68;0.68;;;;;;;;;;4992193;28;20064;-51
2022/06/24 10:48:47;;;;;;;0.50;0.50;;;;;;;;;;4991863;28;20037;-51
2022/06/24 10:51:13;;;;;;;;;;;;;;;;;;4991753;28;20061;-49
2022/06/24 10:53:58;;;;;;;0.63;0.50;;;;;;;;;;4975135;28;19996;-50
2022/06/24 10:56:36;;;;;;;0.70;0.70;;;;;;;;;;4985828;28;20034;-48
2022/06/24 10:59:02;;;;;;;0.70;0.70;;;;;;;;;;4992141;28;20080;-52
2022/06/24 11:01:29;;;;;;;0.93;0.60;;;;;;;;;;4993305;28;20030;-50
2022/06/24 11:03:56;;;;;;;0.57;0.52;;;;;;;;;;4991950;28;20029;-52
2022/06/24 11:06:22;;;;;;;0.85;0.63;;;;;;;;;;4988403;28;20041;-51
2022/06/24 11:08:48;;;;;;;0.60;0.60;;;;;;;;;;4987934;28;20552;-51
2022/06/24 11:11:26;;;;;;;0.57;0.40;;;;;;;;;;4992334;28;20132;-50
2022/06/24 11:13:53;;;;;;;0.63;0.60;;;;;;;;;;4992582;28;20030;-50
2022/06/24 11:16:20;;;;;;;0.50;0.50;;;;;;;;;;4992250;28;20030;-51
2022/06/24 11:18:50;;;;;;;0.50;0.50;;;;;;;;;;4973893;28;20517;-51
2022/06/24 11:21:19;;;;;;;0.52;0.52;;;;;;;;;;4979516;28;20027;-51
2022/06/24 11:23:47;;;;;;;1.17;0.50;;;;;;;;;;4990823;28;20038;-51
2022/06/24 11:26:19;;;;;;;1.20;0.60;;;;;;;;;;4990695;28;20026;-52
2022/06/24 11:28:52;;;;;;;0.85;0.70;;;;;;;;;;4993515;28;20037;-52
2022/06/24 11:31:22;;;;;;;0.50;0.50;;;;;;;;;;4992826;28;20058;-48
2022/06/24 11:33:49;;;;;;;0.65;0.65;;;;;;;;;;4992336;28;20030;-49
2022/06/24 11:36:16;;;;;;;0.60;0.60;;;;;;;;;;4992558;28;20055;-51
2022/06/24 11:39:12;;;;;;;0.50;0.50;;;;;;;;;;4990619;28;20087;-51
2022/06/24 11:41:40;;;;;;;0.40;0.40;;;;;;;;;;4978236;28;20043;-50
2022/06/24 11:44:07;;;;;;;0.60;0.60;;;;;;;;;;4990087;28;20548;-52
2022/06/24 11:46:33;;;;;;;0.40;0.40;;;;;;;;;;4987909;28;20065;-50
2022/06/24 11:49:03;;;;;;;0.40;0.40;;;;;;;;;;4989799;28;20026;-52
2022/06/24 11:51:29;;;;;;;0.47;0.47;;;;;;;;;;4990233;28;20034;-52
2022/06/24 11:53:59;;;;;;;0.47;0.47;;;;;;;;;;4991019;28;20113;-51
2022/06/24 11:56:31;;;;;;;0.40;0.40;;;;;;;;;;4989881;28;20076;-51
2022/06/24 11:58:58;;;;;;;0.45;0.45;;;;;;;;;;4989166;28;20034;-52
2022/06/24 12:01:24;;;;;;;0.50;0.47;;;;;;;;;;4985649;28;20065;-52
2022/06/24 12:03:51;;;;;;;0.40;0.40;;;;;;;;;;4979523;28;20022;-51
2022/06/24 12:06:18;;;;;;;0.40;0.40;;;;;;;;;;4989607;28;20034;-48
2022/06/24 12:08:45;;;;;;;0.50;0.50;;;;;;;;;;4989930;28;20038;-50
2022/06/24 12:11:15;;;;;;;0.47;0.47;;;;;;;;;;4985178;28;20030;-51
2022/06/24 12:13:42;;;;;;;0.50;0.50;;;;;;;;;;4983754;28;20505;-52
2022/06/24 12:16:09;;;;;;;0.55;0.55;;;;;;;;;;5011678;28;20034;-50
2022/06/24 12:18:36;;;;;;;0.57;0.40;;;;;;;;;;4982507;28;20026;-51
2022/06/24 12:21:03;;;;;;;0.60;0.60;;;;;;;;;;4986655;28;20026;-51
2022/06/24 12:23:32;;;;;;;0.40;0.40;;;;;;;;;;4980477;28;20113;-51
2022/06/24 12:25:58;;;;;;;0.50;0.50;;;;;;;;;;4973891;28;20549;-52
2022/06/24 12:28:27;;;;;;;0.40;0.40;;;;;;;;;;4987666;28;20481;-52
2022/06/24 12:30:56;;;;;;;0.40;0.40;;;;;;;;;;4984460;28;20386;-51
2022/06/24 12:33:24;;;;;;;0.47;0.47;;;;;;;;;;4976403;28;20130;-51
2022/06/24 12:36:11;;;;;;;0.45;0.35;;;;;;;;;;4986395;28;20022;-52
2022/06/24 12:38:40;;;;;;;0.43;0.40;;;;;;;;;;4986761;28;20078;-52
2022/06/24 12:41:07;;;;;;;0.50;0.50;;;;;;;;;;4985135;28;20405;-50
2022/06/24 12:43:33;;;;;;;0.40;0.40;;;;;;;;;;4987589;28;20018;-50
2022/06/24 12:45:59;;;;;;;0.40;0.40;;;;;;;;;;4986919;28;20026;-52
2022/06/24 12:51:12;;;;;;;0.73;0.30;;;;;;;;;;4986977;28;20464;-51
2022/06/24 12:53:38;;;;;;;0.50;0.50;;;;;;;;;;4986703;28;20383;-52
2022/06/24 12:56:04;;;;;;;0.52;0.50;;;;;;;;;;4987447;28;20026;-51
2022/06/24 12:58:30;;;;;;;0.40;0.40;;;;;;;;;;4972226;28;20026;-50
2022/06/24 13:00:58;;;;;;;0.50;0.50;;;;;;;;;;4973651;28;20516;-52
2022/06/24 13:03:24;;;;;;;0.45;0.45;;;;;;;;;;4985160;28;20022;-51
2022/06/24 13:05:50;;;;;;;0.47;0.47;;;;;;;;;;4985931;28;20026;-51
2022/06/24 13:08:16;;;;;;;0.60;0.60;;;;;;;;;;4987104;28;20034;-53
2022/06/24 13:10:42;;;;;;;0.50;0.50;;;;;;;;;;4981622;28;20030;-51
2022/06/24 13:13:09;;;;;;;0.90;0.50;;;;;;;;;;4982867;28;20062;-50
2022/06/24 13:15:36;;;;;;;0.50;0.50;;;;;;;;;;4976130;28;20031;-50
2022/06/24 13:18:03;;;;;;;0.30;0.30;;;;;;;;;;4983845;28;20157;-49
2022/06/24 13:20:29;;;;;;;0.40;0.40;;;;;;;;;;4986988;28;20034;-48
2022/06/24 13:22:56;;;;;;;0.40;0.40;;;;;;;;;;4986725;28;20109;-52
2022/06/24 13:25:23;;;;;;;0.50;0.50;;;;;;;;;;4981635;28;20042;-51
2022/06/24 13:27:50;;;;;;;0.47;0.47;;;;;;;;;;4978097;28;20037;-50
2022/06/24 13:30:16;;;;;;;0.50;0.50;;;;;;;;;;4982808;28;20031;-48
2022/06/24 13:32:42;;;;;;;0.50;0.50;;;;;;;;;;4985209;28;20584;-52
2022/06/24 13:35:09;;;;;;;0.40;0.40;;;;;;;;;;4981899;28;20038;-51
2022/06/24 13:37:35;;;;;;;0.40;0.40;;;;;;;;;;4982499;28;20073;-52
2022/06/24 13:40:01;;;;;;;0.40;0.40;;;;;;;;;;4985416;28;20053;-50
2022/06/24 13:42:29;;;;;;;0.40;0.40;;;;;;;;;;4984572;28;20104;-51
2022/06/24 13:44:55;;;;;;;0.40;0.40;;;;;;;;;;4986569;28;20026;-48
2022/06/24 13:47:21;;;;;;;0.38;0.38;;;;;;;;;;4984104;28;20022;-52
2022/06/24 13:49:47;;;;;;;0.30;0.30;;;;;;;;;;4986100;28;20121;-52
2022/06/24 13:52:14;;;;;;;0.65;0.40;;;;;;;;;;4985880;28;20462;-53
2022/06/24 13:54:40;;;;;;;0.30;0.30;;;;;;;;;;4986462;28;20033;-52
2022/06/24 13:57:06;;;;;;;0.45;0.30;;;;;;;;;;4987191;28;20842;-52
2022/06/24 13:59:33;;;;;;;0.30;0.30;;;;;;;;;;4987500;28;20690;-52
2022/06/24 14:01:59;;;;;;;0.30;0.30;;;;;;;;;;4985848;28;20417;-51
2022/06/24 14:04:26;;;;;;;0.20;0.20;;;;;;;;;;4988194;28;20556;-52
2022/06/24 14:06:52;;;;;;;0.30;0.30;;;;;;;;;;4987279;28;20019;-52
2022/06/24 14:09:18;;;;;;;0.30;0.30;;;;;;;;;;4986923;28;20106;-52
2022/06/24 14:11:45;;;;;;;0.30;0.30;;;;;;;;;;4986610;28;20049;-52
2022/06/24 14:14:12;;;;;;;0.20;0.20;;;;;;;;;;4986375;28;20037;-52
2022/06/24 14:16:38;;;;;;;0.30;0.30;;;;;;;;;;4986866;28;20038;-51
2022/06/24 14:19:06;;;;;;;0.20;0.20;;;;;;;;;;4979685;28;20070;-52
2022/06/24 14:21:34;;;;;;;0.30;0.30;;;;;;;;;;4981300;28;20023;-48
2022/06/24 14:26:44;;;;;;;;;;;;;;;;;;4986860;28;20077;-52
2022/06/24 14:29:10;;;;;;;0.30;0.30;;;;;;;;;;4986294;28;19933;-51
2022/06/24 14:31:36;;;;;;;0.22;0.22;;;;;;;;;;4986479;28;20410;-51
2022/06/24 14:34:03;;;;;;;0.20;0.20;;;;;;;;;;4986254;28;20042;-49
2022/06/24 14:36:30;;;;;;;0.20;0.20;;;;;;;;;;4986427;28;20061;-52
2022/06/24 14:41:41;;;;;;;0.20;0.20;;;;;;;;;;4987730;28;20114;-52
2022/06/24 14:44:07;;;;;;;0.20;0.20;;;;;;;;;;4986777;28;20034;-51
2022/06/24 14:46:33;;;;;;;0.28;0.28;;;;;;;;;;4987676;28;20444;-52
2022/06/24 14:48:59;;;;;;;0.30;0.30;;;;;;;;;;4985845;28;20042;-52
2022/06/24 14:51:25;;;;;;;0.40;0.40;;;;;;;;;;4988058;28;20030;-51
2022/06/24 14:53:51;;;;;;;0.30;0.30;;;;;;;;;;4987154;28;20113;-51
2022/06/24 14:56:17;;;;;;;0.30;0.30;;;;;;;;;;4983662;28;20493;-51
2022/06/24 14:58:43;;;;;;;0.30;0.30;;;;;;;;;;4987282;28;20038;-51
2022/06/24 15:01:10;;;;;;;0.30;0.30;;;;;;;;;;4985940;28;20037;-51
2022/06/24 15:03:37;;;;;;;0.30;0.30;;;;;;;;;;4985780;28;20030;-50